sensor_id;sensor_type;location;lat;lon;timestamp;P1;P2;P0
76330;PMS7003;65148;51.912;15.570;2022-11-15T00:09:35;98;71;43
76330;PMS7003;65148;51.912;15.570;2022-11-15T00:24:36;69;44;8
76330;PMS7003;65148;51.912;15.570;2022-11-15T00:39:37;93;71;44
76330;PMS7003;65148;51.912;15.570;2022-11-15T00:54:38;85;64;38
76330;PMS7003;65148;51.912;15.570;2022-11-15T01:10:05;83;64;38
76330;PMS7003;65148;51.912;15.570;2022-11-15T01:25:06;76;56;34
76330;PMS7003;65148;51.912;15.570;2022-11-15T01:40:07;75;57;35
76330;PMS7003;65148;51.912;15.570;2022-11-15T01:55:09;66;53;32
76330;PMS7003;65148;51.912;15.570;2022-11-15T02:10:34;67;53;32
76330;PMS7003;65148;51.912;15.570;2022-11-15T02:25:50;66;51;33
76330;PMS7003;65148;51.912;15.570;2022-11-15T02:40:56;62;48;30
76330;PMS7003;65148;51.912;15.570;2022-11-15T02:56:18;62;50;31
76330;PMS7003;65148;51.912;15.570;2022-11-15T03:11:19;57;47;28
76330;PMS7003;65148;51.912;15.570;2022-11-15T03:26:22;43;37;26
76330;PMS7003;65148;51.912;15.570;2022-11-15T03:41:28;56;46;28
76330;PMS7003;65148;51.912;15.570;2022-11-15T03:56:49;54;45;26
76330;PMS7003;65148;51.912;15.570;2022-11-15T04:11:50;58;46;29
76330;PMS7003;65148;51.912;15.570;2022-11-15T04:26:50;51;40;23
76330;PMS7003;65148;51.912;15.570;2022-11-15T04:41:52;50;41;26
76330;PMS7003;65148;51.912;15.570;2022-11-15T04:57:18;49;41;26
76330;PMS7003;65148;51.912;15.570;2022-11-15T05:12:19;51;44;28
76330;PMS7003;65148;51.912;15.570;2022-11-15T05:27:20;48;39;25
76330;PMS7003;65148;51.912;15.570;2022-11-15T05:42:20;57;44;26
76330;PMS7003;65148;51.912;15.570;2022-11-15T05:57:46;64;52;33
76330;PMS7003;65148;51.912;15.570;2022-11-15T06:12:55;87;65;38
76330;PMS7003;65148;51.912;15.570;2022-11-15T06:27:58;63;51;33
76330;PMS7003;65148;51.912;15.570;2022-11-15T06:43:00;68;52;35
76330;PMS7003;65148;51.912;15.570;2022-11-15T06:58:16;112;89;50
76330;PMS7003;65148;51.912;15.570;2022-11-15T07:13:18;98;74;47
76330;PMS7003;65148;51.912;15.570;2022-11-15T07:28:19;74;58;35
76330;PMS7003;65148;51.912;15.570;2022-11-15T07:43:19;70;55;34
76330;PMS7003;65148;51.912;15.570;2022-11-15T07:58:46;81;61;38
76330;PMS7003;65148;51.912;15.570;2022-11-15T08:13:48;89;67;42
76330;PMS7003;65148;51.912;15.570;2022-11-15T08:28:49;92;71;45
76330;PMS7003;65148;51.912;15.570;2022-11-15T08:43:49;94;74;44
76330;PMS7003;65148;51.912;15.570;2022-11-15T08:59:15;74;59;36
76330;PMS7003;65148;51.912;15.570;2022-11-15T09:14:16;40;33;22
76330;PMS7003;65148;51.912;15.570;2022-11-15T09:29:17;46;38;23
76330;PMS7003;65148;51.912;15.570;2022-11-15T09:44:24;45;37;24
76330;PMS7003;65148;51.912;15.570;2022-11-15T10:30:12;37;35;23
76330;PMS7003;65148;51.912;15.570;2022-11-15T10:45:29;31;28;17
76330;PMS7003;65148;51.912;15.570;2022-11-15T11:15:43;34;32;22
76330;PMS7003;65148;51.912;15.570;2022-11-15T11:46:25;29;27;18
76330;PMS7003;65148;51.912;15.570;2022-11-15T12:01:35;45;36;22
76330;PMS7003;65148;51.912;15.570;2022-11-15T12:16:54;37;33;21
76330;PMS7003;65148;51.912;15.570;2022-11-15T12:31:55;34;32;22
76330;PMS7003;65148;51.912;15.570;2022-11-15T12:47:02;33;27;17
76330;PMS7003;65148;51.912;15.570;2022-11-15T13:02:55;34;31;21
76330;PMS7003;65148;51.912;15.570;2022-11-15T13:33:36;33;30;20
76330;PMS7003;65148;51.912;15.570;2022-11-15T13:48:40;43;36;23
76330;PMS7003;65148;51.912;15.570;2022-11-15T14:03:46;46;39;25
76330;PMS7003;65148;51.912;15.570;2022-11-15T14:19:33;52;43;26
76330;PMS7003;65148;51.912;15.570;2022-11-15T14:34:27;44;37;25
76330;PMS7003;65148;51.912;15.570;2022-11-15T14:49:27;40;35;21
76330;PMS7003;65148;51.912;15.570;2022-11-15T15:04:53;39;34;22
76330;PMS7003;65148;51.912;15.570;2022-11-15T15:19:54;40;36;23
76330;PMS7003;65148;51.912;15.570;2022-11-15T15:34:56;57;46;29
76330;PMS7003;65148;51.912;15.570;2022-11-15T15:49:57;63;50;33
76330;PMS7003;65148;51.912;15.570;2022-11-15T16:05:19;69;52;34
76330;PMS7003;65148;51.912;15.570;2022-11-15T16:35:32;62;50;30
76330;PMS7003;65148;51.912;15.570;2022-11-15T16:50:33;129;85;47
76330;PMS7003;65148;51.912;15.570;2022-11-15T17:05:56;103;81;47
76330;PMS7003;65148;51.912;15.570;2022-11-15T17:36:17;102;78;47
76330;PMS7003;65148;51.912;15.570;2022-11-15T17:51:40;93;67;41
76330;PMS7003;65148;51.912;15.570;2022-11-15T18:06:41;85;66;40
76330;PMS7003;65148;51.912;15.570;2022-11-15T18:21:43;86;65;42
76330;PMS7003;65148;51.912;15.570;2022-11-15T18:37:23;89;70;43
76330;PMS7003;65148;51.912;15.570;2022-11-15T18:52:24;87;66;43
76330;PMS7003;65148;51.912;15.570;2022-11-15T19:07:25;87;71;43
76330;PMS7003;65148;51.912;15.570;2022-11-15T19:22:26;79;61;36
76330;PMS7003;65148;51.912;15.570;2022-11-15T19:37:53;84;66;41
76330;PMS7003;65148;51.912;15.570;2022-11-15T19:52:54;77;60;35
76330;PMS7003;65148;51.912;15.570;2022-11-15T20:07:54;86;66;41
76330;PMS7003;65148;51.912;15.570;2022-11-15T20:22:55;90;69;43
76330;PMS7003;65148;51.912;15.570;2022-11-15T20:38:22;99;75;45
76330;PMS7003;65148;51.912;15.570;2022-11-15T20:53:23;83;64;39
76330;PMS7003;65148;51.912;15.570;2022-11-15T21:08:24;84;63;37
76330;PMS7003;65148;51.912;15.570;2022-11-15T21:23:25;89;64;39
76330;PMS7003;65148;51.912;15.570;2022-11-15T21:38:50;90;68;41
76330;PMS7003;65148;51.912;15.570;2022-11-15T21:53:53;66;50;23
76330;PMS7003;65148;51.912;15.570;2022-11-15T22:08:56;82;62;37
76330;PMS7003;65148;51.912;15.570;2022-11-15T22:23:57;71;57;37
76330;PMS7003;65148;51.912;15.570;2022-11-15T22:39:20;73;57;37
76330;PMS7003;65148;51.912;15.570;2022-11-15T22:54:21;60;47;26
76330;PMS7003;65148;51.912;15.570;2022-11-15T23:09:22;67;52;30
76330;PMS7003;65148;51.912;15.570;2022-11-15T23:24:23;67;55;35
76330;PMS7003;65148;51.912;15.570;2022-11-15T23:39:48;67;54;32
76330;PMS7003;65148;51.912;15.570;2022-11-15T23:54:49;74;58;37
